Taylor Fork

This weather station provides wind speed, gust or max wind speed, and wind direction at 9460 ft. near Pika Point above Sunlight Basin.  

This data can be used with temperature and precipitation data from the Carrot Basin SNOTEL site. If the data below is not displayed or up to date, view data here.

This weather station was purchased by the Friends of the Avalanche Center.

Elevation
9460ft
Jump to table bottom
Date Time Temperature
deg F
RH, % Wind Speed Wind Gust Wind Direction
02/25/20 01:00 4.7 88 15 26 NW - 329
02/25/20 00:00 5.2 88 15 25 NW - 326
02/24/20 23:00 6.0 88 16 26 NW - 324
02/24/20 22:00 6.1 88 17 27 NW - 324
02/24/20 21:00 6.4 89 19 29 NW - 324
02/24/20 20:00 7.0 89 17 30 NW - 326
02/24/20 19:00 7.3 89 17 26 NW - 323
02/24/20 18:00 8.0 88 18 31 NW - 321
02/24/20 17:00 8.5 89 17 29 NW - 321
02/24/20 16:00 8.7 89 11 28 NW - 317
02/24/20 15:00 10.4 86 16 28 NW - 299
02/24/20 14:00 10.3 73 21 38 W - 292
02/24/20 13:00 11.2 70 17 28 NW - 295
02/24/20 12:00 10.0 73 19 35 NW - 309
02/24/20 11:00 9.3 78 18 32 NW - 309
02/24/20 10:00 8.2 84 20 35 NW - 310
02/24/20 09:00 7.8 83 21 34 NW - 303
02/24/20 08:00 7.3 81 26 43 NW - 312
02/24/20 07:00 7.2 80 28 46 NW - 314
02/24/20 06:00 7.2 81 26 43 NW - 309
02/24/20 05:00 7.6 77 31 52 NW - 312
02/24/20 04:00 7.7 86 23 43 NW - 313
02/24/20 03:00 7.3 89 26 47 NW - 320
02/24/20 02:00 7.9 88 29 48 NW - 320
02/24/20 01:00 8.4 88 27 48 NW - 324
02/24/20 00:00 9.5 89 20 36 NW - 326
02/23/20 23:00 10.2 89 21 41 NW - 324
02/23/20 22:00 11.7 90 15 30 NW - 312
02/23/20 21:00 14.8 89 16 26 S - 192
02/23/20 20:00 13.0 87 19 28 S - 188
02/23/20 19:00 14.0 83 18 26 S - 160
02/23/20 18:00 15.4 75 19 28 S - 174
02/23/20 17:00 18.8 65 20 31 SW - 222
02/23/20 16:00 21.4 61 18 29 SW - 220
02/23/20 15:00 22.1 59 15 25 SW - 205
02/23/20 14:00 21.9 59 14 23 S - 194
02/23/20 13:00 21.5 57 10 22 SE - 140
02/23/20 12:00 23.6 54 11 25 SE - 149
02/23/20 11:00 22.0 56 14 22 S - 164
02/23/20 10:00 22.5 51 16 23 S - 187
02/23/20 09:00 20.3 54 14 21 S - 188
02/23/20 08:00 20.0 54 13 18 S - 199
02/23/20 07:00 21.2 51 15 21 SW - 211
02/23/20 06:00 19.8 57 11 17 S - 199
02/23/20 05:00 19.1 56 10 14 SW - 205
02/23/20 04:00 18.8 58 10 15 SW - 222
02/23/20 03:00 20.0 55 10 14 S - 201
02/23/20 02:00 19.4 55 12 16 S - 187
02/23/20 01:00 19.8 54 12 16 SW - 208
02/23/20 00:00 19.6 54 9 13 S - 199